sensor_id;sensor_type;location;lat;lon;timestamp;pressure;altitude;pressure_sealevel;temperature;humidity
48553;BME280;34335;51.566;6.994;2024-03-17T00:01:32;101775.84;;;4.52;100.00
48553;BME280;34335;51.566;6.994;2024-03-17T00:03:57;101779.19;;;4.50;100.00
48553;BME280;34335;51.566;6.994;2024-03-17T00:06:24;101778.13;;;4.45;100.00
48553;BME280;34335;51.566;6.994;2024-03-17T00:08:49;101777.31;;;4.46;100.00
48553;BME280;34335;51.566;6.994;2024-03-17T00:11:15;101779.72;;;4.41;100.00
48553;BME280;34335;51.566;6.994;2024-03-17T00:13:41;101770.97;;;4.38;100.00
48553;BME280;34335;51.566;6.994;2024-03-17T00:16:06;101770.09;;;4.37;100.00
48553;BME280;34335;51.566;6.994;2024-03-17T00:18:32;101775.09;;;4.34;100.00
48553;BME280;34335;51.566;6.994;2024-03-17T00:20:57;101768.94;;;4.30;100.00
48553;BME280;34335;51.566;6.994;2024-03-17T00:23:22;101756.78;;;4.26;100.00
48553;BME280;34335;51.566;6.994;2024-03-17T00:25:48;101766.16;;;4.26;100.00
48553;BME280;34335;51.566;6.994;2024-03-17T00:28:13;101764.59;;;4.29;100.00
48553;BME280;34335;51.566;6.994;2024-03-17T00:30:38;101761.78;;;4.23;100.00
48553;BME280;34335;51.566;6.994;2024-03-17T00:33:04;101752.91;;;4.16;100.00
48553;BME280;34335;51.566;6.994;2024-03-17T00:35:29;101754.53;;;4.14;100.00
48553;BME280;34335;51.566;6.994;2024-03-17T00:37:55;101759.63;;;4.13;100.00
48553;BME280;34335;51.566;6.994;2024-03-17T00:40:21;101755.25;;;4.10;100.00
48553;BME280;34335;51.566;6.994;2024-03-17T00:42:46;101743.94;;;4.07;100.00
48553;BME280;34335;51.566;6.994;2024-03-17T00:45:12;101745.56;;;4.04;100.00
48553;BME280;34335;51.566;6.994;2024-03-17T00:47:37;101734.25;;;4.01;100.00
48553;BME280;34335;51.566;6.994;2024-03-17T00:50:04;101732.34;;;3.97;100.00
48553;BME280;34335;51.566;6.994;2024-03-17T00:52:31;101737.31;;;3.92;100.00
48553;BME280;34335;51.566;6.994;2024-03-17T00:54:56;101723.44;;;3.88;100.00
48553;BME280;34335;51.566;6.994;2024-03-17T00:57:22;101721.56;;;3.84;100.00
48553;BME280;34335;51.566;6.994;2024-03-17T00:59:47;101730.09;;;3.83;100.00
48553;BME280;34335;51.566;6.994;2024-03-17T01:02:13;101728.31;;;3.82;100.00
48553;BME280;34335;51.566;6.994;2024-03-17T01:04:40;101720.50;;;3.81;100.00
48553;BME280;34335;51.566;6.994;2024-03-17T01:07:05;101727.22;;;3.77;100.00
48553;BME280;34335;51.566;6.994;2024-03-17T01:09:30;101730.56;;;3.74;100.00
48553;BME280;34335;51.566;6.994;2024-03-17T01:11:56;101721.81;;;3.71;100.00
48553;BME280;34335;51.566;6.994;2024-03-17T01:14:21;101719.84;;;3.65;100.00
48553;BME280;34335;51.566;6.994;2024-03-17T01:16:46;101718.78;;;3.60;100.00
48553;BME280;34335;51.566;6.994;2024-03-17T01:19:12;101720.31;;;3.56;100.00
48553;BME280;34335;51.566;6.994;2024-03-17T01:21:37;101719.47;;;3.56;100.00
48553;BME280;34335;51.566;6.994;2024-03-17T01:24:02;101717.84;;;3.58;100.00
48553;BME280;34335;51.566;6.994;2024-03-17T01:26:28;101717.63;;;3.53;100.00
48553;BME280;34335;51.566;6.994;2024-03-17T01:28:53;101703.81;;;3.51;100.00
48553;BME280;34335;51.566;6.994;2024-03-17T01:31:18;101705.25;;;3.45;100.00
48553;BME280;34335;51.566;6.994;2024-03-17T01:33:43;101711.88;;;3.39;100.00
48553;BME280;34335;51.566;6.994;2024-03-17T01:36:09;101706.53;;;3.35;100.00
48553;BME280;34335;51.566;6.994;2024-03-17T01:38:34;101714.09;;;3.32;100.00
48553;BME280;34335;51.566;6.994;2024-03-17T01:40:59;101710.78;;;3.34;100.00
48553;BME280;34335;51.566;6.994;2024-03-17T01:43:26;101712.94;;;3.25;100.00
48553;BME280;34335;51.566;6.994;2024-03-17T01:45:52;101714.50;;;3.21;100.00
48553;BME280;34335;51.566;6.994;2024-03-17T01:48:17;101712.81;;;3.22;100.00
48553;BME280;34335;51.566;6.994;2024-03-17T01:50:44;101712.53;;;3.16;100.00
48553;BME280;34335;51.566;6.994;2024-03-17T01:53:12;101706.41;;;3.14;100.00
48553;BME280;34335;51.566;6.994;2024-03-17T01:55:40;101703.84;;;3.14;100.00
48553;BME280;34335;51.566;6.994;2024-03-17T01:58:07;101698.66;;;3.12;100.00
48553;BME280;34335;51.566;6.994;2024-03-17T02:00:33;101696.63;;;3.05;100.00
48553;BME280;34335;51.566;6.994;2024-03-17T02:03:01;101694.81;;;3.02;100.00
48553;BME280;34335;51.566;6.994;2024-03-17T02:05:27;101696.41;;;3.00;100.00
48553;BME280;34335;51.566;6.994;2024-03-17T02:07:52;101685.19;;;2.98;100.00
48553;BME280;34335;51.566;6.994;2024-03-17T02:10:18;101696.53;;;3.03;100.00
48553;BME280;34335;51.566;6.994;2024-03-17T02:12:43;101696.84;;;2.91;100.00
48553;BME280;34335;51.566;6.994;2024-03-17T02:15:09;101691.13;;;2.97;100.00
48553;BME280;34335;51.566;6.994;2024-03-17T02:17:34;101686.50;;;2.90;100.00
48553;BME280;34335;51.566;6.994;2024-03-17T02:19:59;101684.53;;;3.02;100.00
48553;BME280;34335;51.566;6.994;2024-03-17T02:22:26;101678.66;;;2.87;100.00
48553;BME280;34335;51.566;6.994;2024-03-17T02:24:52;101683.88;;;2.88;100.00
48553;BME280;34335;51.566;6.994;2024-03-17T02:27:18;101686.16;;;2.82;100.00
48553;BME280;34335;51.566;6.994;2024-03-17T02:29:44;101685.78;;;2.74;100.00
48553;BME280;34335;51.566;6.994;2024-03-17T02:32:10;101680.38;;;2.68;100.00
48553;BME280;34335;51.566;6.994;2024-03-17T02:34:37;101677.97;;;2.71;100.00
48553;BME280;34335;51.566;6.994;2024-03-17T02:37:04;101673.34;;;2.64;100.00
48553;BME280;34335;51.566;6.994;2024-03-17T02:39:30;101680.00;;;2.60;100.00
48553;BME280;34335;51.566;6.994;2024-03-17T02:41:59;101676.50;;;2.58;100.00
48553;BME280;34335;51.566;6.994;2024-03-17T02:44:25;101674.66;;;2.56;100.00
48553;BME280;34335;51.566;6.994;2024-03-17T02:46:50;101673.91;;;2.76;100.00
48553;BME280;34335;51.566;6.994;2024-03-17T02:49:16;101664.53;;;2.59;100.00
48553;BME280;34335;51.566;6.994;2024-03-17T02:51:43;101667.84;;;2.56;100.00
48553;BME280;34335;51.566;6.994;2024-03-17T02:54:08;101662.84;;;2.59;100.00
48553;BME280;34335;51.566;6.994;2024-03-17T02:56:34;101659.19;;;2.54;100.00
48553;BME280;34335;51.566;6.994;2024-03-17T02:58:59;101656.66;;;2.56;100.00
48553;BME280;34335;51.566;6.994;2024-03-17T03:01:24;101659.59;;;2.45;100.00
48553;BME280;34335;51.566;6.994;2024-03-17T03:03:50;101658.81;;;2.46;100.00
48553;BME280;34335;51.566;6.994;2024-03-17T03:06:15;101651.41;;;2.53;100.00
48553;BME280;34335;51.566;6.994;2024-03-17T03:08:44;101647.59;;;2.44;100.00
48553;BME280;34335;51.566;6.994;2024-03-17T03:11:13;101655.59;;;2.51;100.00
48553;BME280;34335;51.566;6.994;2024-03-17T03:13:40;101657.84;;;2.62;100.00
48553;BME280;34335;51.566;6.994;2024-03-17T03:16:14;101661.59;;;2.51;100.00
48553;BME280;34335;51.566;6.994;2024-03-17T03:18:40;101661.97;;;2.41;100.00
48553;BME280;34335;51.566;6.994;2024-03-17T03:21:06;101664.69;;;2.62;100.00
48553;BME280;34335;51.566;6.994;2024-03-17T03:23:31;101667.31;;;2.45;100.00
48553;BME280;34335;51.566;6.994;2024-03-17T03:25:58;101675.38;;;2.53;100.00
48553;BME280;34335;51.566;6.994;2024-03-17T03:28:24;101672.00;;;2.54;100.00
48553;BME280;34335;51.566;6.994;2024-03-17T03:30:50;101667.03;;;2.39;100.00
48553;BME280;34335;51.566;6.994;2024-03-17T03:33:16;101664.09;;;2.31;100.00
48553;BME280;34335;51.566;6.994;2024-03-17T03:35:43;101662.94;;;2.25;100.00
48553;BME280;34335;51.566;6.994;2024-03-17T03:38:08;101665.19;;;2.18;100.00
48553;BME280;34335;51.566;6.994;2024-03-17T03:40:33;101667.22;;;2.08;100.00
48553;BME280;34335;51.566;6.994;2024-03-17T03:42:59;101668.25;;;2.11;100.00
48553;BME280;34335;51.566;6.994;2024-03-17T03:45:24;101657.53;;;2.02;100.00
48553;BME280;34335;51.566;6.994;2024-03-17T03:47:50;101662.09;;;2.08;100.00
48553;BME280;34335;51.566;6.994;2024-03-17T03:50:21;101666.56;;;2.12;100.00
48553;BME280;34335;51.566;6.994;2024-03-17T03:52:47;101668.25;;;2.11;100.00
48553;BME280;34335;51.566;6.994;2024-03-17T03:55:14;101672.06;;;2.20;100.00
48553;BME280;34335;51.566;6.994;2024-03-17T03:57:41;101661.38;;;2.10;100.00
48553;BME280;34335;51.566;6.994;2024-03-17T04:00:07;101659.94;;;1.99;100.00
48553;BME280;34335;51.566;6.994;2024-03-17T04:02:41;101664.81;;;2.11;100.00
48553;BME280;34335;51.566;6.994;2024-03-17T04:05:07;101659.53;;;2.08;100.00
48553;BME280;34335;51.566;6.994;2024-03-17T04:07:33;101656.44;;;2.15;100.00
48553;BME280;34335;51.566;6.994;2024-03-17T04:09:59;101656.38;;;2.13;100.00
48553;BME280;34335;51.566;6.994;2024-03-17T04:12:25;101656.03;;;2.24;100.00
48553;BME280;34335;51.566;6.994;2024-03-17T04:14:50;101661.75;;;2.18;100.00
48553;BME280;34335;51.566;6.994;2024-03-17T04:17:20;101655.34;;;2.28;100.00
48553;BME280;34335;51.566;6.994;2024-03-17T04:19:52;101655.94;;;2.22;100.00
48553;BME280;34335;51.566;6.994;2024-03-17T04:22:19;101649.56;;;2.32;100.00
48553;BME280;34335;51.566;6.994;2024-03-17T04:24:48;101652.13;;;2.14;100.00
48553;BME280;34335;51.566;6.994;2024-03-17T04:27:18;101651.97;;;2.29;100.00
48553;BME280;34335;51.566;6.994;2024-03-17T04:29:46;101654.25;;;2.05;100.00
48553;BME280;34335;51.566;6.994;2024-03-17T04:32:13;101655.22;;;2.43;100.00
48553;BME280;34335;51.566;6.994;2024-03-17T04:34:38;101651.78;;;2.80;100.00
48553;BME280;34335;51.566;6.994;2024-03-17T04:37:03;101645.25;;;2.49;100.00
48553;BME280;34335;51.566;6.994;2024-03-17T04:39:28;101640.53;;;2.40;100.00
48553;BME280;34335;51.566;6.994;2024-03-17T04:41:54;101640.34;;;2.54;100.00
48553;BME280;34335;51.566;6.994;2024-03-17T04:44:19;101632.78;;;2.21;100.00
48553;BME280;34335;51.566;6.994;2024-03-17T04:46:44;101632.31;;;2.47;100.00
48553;BME280;34335;51.566;6.994;2024-03-17T04:49:10;101630.97;;;2.56;100.00
48553;BME280;34335;51.566;6.994;2024-03-17T04:51:35;101622.28;;;2.90;100.00
48553;BME280;34335;51.566;6.994;2024-03-17T04:54:01;101621.88;;;2.80;100.00
48553;BME280;34335;51.566;6.994;2024-03-17T04:56:29;101625.13;;;2.58;100.00
48553;BME280;34335;51.566;6.994;2024-03-17T04:58:54;101618.97;;;2.55;100.00
48553;BME280;34335;51.566;6.994;2024-03-17T05:01:19;101621.75;;;2.59;100.00
48553;BME280;34335;51.566;6.994;2024-03-17T05:03:45;101619.16;;;2.40;100.00
48553;BME280;34335;51.566;6.994;2024-03-17T05:06:10;101619.84;;;2.37;100.00
48553;BME280;34335;51.566;6.994;2024-03-17T05:08:35;101615.19;;;2.28;100.00
48553;BME280;34335;51.566;6.994;2024-03-17T05:11:03;101616.41;;;2.37;100.00
48553;BME280;34335;51.566;6.994;2024-03-17T05:13:36;101622.56;;;2.40;100.00
48553;BME280;34335;51.566;6.994;2024-03-17T05:16:03;101621.50;;;2.35;100.00
48553;BME280;34335;51.566;6.994;2024-03-17T05:18:29;101622.03;;;2.47;100.00
48553;BME280;34335;51.566;6.994;2024-03-17T05:21:02;101623.38;;;2.39;100.00
48553;BME280;34335;51.566;6.994;2024-03-17T05:23:29;101625.59;;;2.13;100.00
48553;BME280;34335;51.566;6.994;2024-03-17T05:25:56;101617.91;;;2.13;100.00
48553;BME280;34335;51.566;6.994;2024-03-17T05:28:22;101616.13;;;2.12;100.00
48553;BME280;34335;51.566;6.994;2024-03-17T05:30:47;101621.50;;;2.35;100.00
48553;BME280;34335;51.566;6.994;2024-03-17T05:33:16;101614.00;;;2.40;100.00
48553;BME280;34335;51.566;6.994;2024-03-17T05:35:49;101607.47;;;2.28;100.00
48553;BME280;34335;51.566;6.994;2024-03-17T05:38:14;101609.53;;;2.54;100.00
48553;BME280;34335;51.566;6.994;2024-03-17T05:40:39;101604.88;;;2.64;100.00
48553;BME280;34335;51.566;6.994;2024-03-17T05:43:06;101616.31;;;2.53;100.00
48553;BME280;34335;51.566;6.994;2024-03-17T05:45:32;101614.44;;;2.49;100.00
48553;BME280;34335;51.566;6.994;2024-03-17T05:47:57;101615.91;;;2.44;100.00
48553;BME280;34335;51.566;6.994;2024-03-17T05:50:23;101608.50;;;2.32;100.00
48553;BME280;34335;51.566;6.994;2024-03-17T05:52:48;101607.06;;;2.57;100.00
48553;BME280;34335;51.566;6.994;2024-03-17T05:55:13;101608.25;;;2.45;100.00
48553;BME280;34335;51.566;6.994;2024-03-17T05:57:38;101616.53;;;2.58;100.00
48553;BME280;34335;51.566;6.994;2024-03-17T06:00:04;101615.28;;;2.68;100.00
48553;BME280;34335;51.566;6.994;2024-03-17T06:02:30;101615.88;;;2.62;100.00
48553;BME280;34335;51.566;6.994;2024-03-17T06:04:55;101615.38;;;2.51;100.00
48553;BME280;34335;51.566;6.994;2024-03-17T06:07:20;101620.44;;;2.49;100.00
48553;BME280;34335;51.566;6.994;2024-03-17T06:09:45;101625.41;;;2.46;100.00
48553;BME280;34335;51.566;6.994;2024-03-17T06:12:12;101618.25;;;2.39;100.00
48553;BME280;34335;51.566;6.994;2024-03-17T06:14:37;101613.91;;;2.56;100.00
48553;BME280;34335;51.566;6.994;2024-03-17T06:17:03;101615.31;;;2.49;100.00
48553;BME280;34335;51.566;6.994;2024-03-17T06:19:30;101614.06;;;2.79;100.00
48553;BME280;34335;51.566;6.994;2024-03-17T06:21:56;101615.78;;;2.98;100.00
48553;BME280;34335;51.566;6.994;2024-03-17T06:24:22;101608.06;;;2.98;100.00
48553;BME280;34335;51.566;6.994;2024-03-17T06:26:50;101603.47;;;2.91;100.00
48553;BME280;34335;51.566;6.994;2024-03-17T06:29:15;101603.78;;;2.79;100.00
48553;BME280;34335;51.566;6.994;2024-03-17T06:31:41;101596.63;;;2.91;100.00
48553;BME280;34335;51.566;6.994;2024-03-17T06:34:06;101593.22;;;2.91;100.00
48553;BME280;34335;51.566;6.994;2024-03-17T06:36:31;101597.38;;;2.89;100.00
48553;BME280;34335;51.566;6.994;2024-03-17T06:38:57;101594.69;;;2.86;100.00
48553;BME280;34335;51.566;6.994;2024-03-17T06:41:22;101601.38;;;3.02;100.00
48553;BME280;34335;51.566;6.994;2024-03-17T06:43:48;101599.16;;;2.90;100.00
48553;BME280;34335;51.566;6.994;2024-03-17T06:46:14;101600.50;;;3.21;100.00
48553;BME280;34335;51.566;6.994;2024-03-17T06:48:39;101598.94;;;3.44;100.00
48553;BME280;34335;51.566;6.994;2024-03-17T06:51:05;101604.63;;;3.78;100.00
48553;BME280;34335;51.566;6.994;2024-03-17T06:53:30;101597.75;;;3.57;100.00
48553;BME280;34335;51.566;6.994;2024-03-17T06:55:57;101593.81;;;3.65;100.00
48553;BME280;34335;51.566;6.994;2024-03-17T06:58:23;101583.31;;;3.39;100.00
48553;BME280;34335;51.566;6.994;2024-03-17T07:00:56;101577.31;;;3.60;100.00
48553;BME280;34335;51.566;6.994;2024-03-17T07:03:31;101580.94;;;3.44;100.00
48553;BME280;34335;51.566;6.994;2024-03-17T07:05:59;101575.84;;;3.67;100.00
48553;BME280;34335;51.566;6.994;2024-03-17T07:08:27;101574.50;;;4.19;100.00
48553;BME280;34335;51.566;6.994;2024-03-17T07:11:06;101577.03;;;3.54;100.00
48553;BME280;34335;51.566;6.994;2024-03-17T07:13:38;101575.97;;;3.91;100.00
48553;BME280;34335;51.566;6.994;2024-03-17T07:16:07;101571.59;;;3.67;100.00
48553;BME280;34335;51.566;6.994;2024-03-17T07:18:33;101573.69;;;4.43;100.00
48553;BME280;34335;51.566;6.994;2024-03-17T07:21:00;101587.72;;;4.05;100.00
48553;BME280;34335;51.566;6.994;2024-03-17T07:23:27;101581.53;;;4.68;100.00
48553;BME280;34335;51.566;6.994;2024-03-17T07:25:57;101584.53;;;5.04;100.00
48553;BME280;34335;51.566;6.994;2024-03-17T07:28:23;101582.31;;;5.14;100.00
48553;BME280;34335;51.566;6.994;2024-03-17T07:30:53;101589.22;;;5.40;100.00
48553;BME280;34335;51.566;6.994;2024-03-17T07:33:19;101579.38;;;5.28;100.00
48553;BME280;34335;51.566;6.994;2024-03-17T07:35:55;101589.69;;;5.28;100.00
48553;BME280;34335;51.566;6.994;2024-03-17T07:38:23;101577.47;;;5.48;100.00
48553;BME280;34335;51.566;6.994;2024-03-17T07:41:01;101581.75;;;5.73;100.00
48553;BME280;34335;51.566;6.994;2024-03-17T07:43:28;101576.34;;;5.93;100.00
48553;BME280;34335;51.566;6.994;2024-03-17T07:46:12;101575.09;;;5.80;100.00
48553;BME280;34335;51.566;6.994;2024-03-17T07:48:39;101573.72;;;5.91;100.00
48553;BME280;34335;51.566;6.994;2024-03-17T07:51:06;101570.91;;;6.11;100.00
48553;BME280;34335;51.566;6.994;2024-03-17T07:53:34;101576.06;;;6.38;100.00
48553;BME280;34335;51.566;6.994;2024-03-17T07:56:01;101579.16;;;5.99;100.00
48553;BME280;34335;51.566;6.994;2024-03-17T07:58:29;101584.59;;;5.81;100.00
48553;BME280;34335;51.566;6.994;2024-03-17T08:01:01;101596.72;;;6.11;100.00
48553;BME280;34335;51.566;6.994;2024-03-17T08:03:31;101598.50;;;6.70;100.00
48553;BME280;34335;51.566;6.994;2024-03-17T08:05:58;101593.09;;;6.91;100.00
48553;BME280;34335;51.566;6.994;2024-03-17T08:08:23;101599.50;;;7.04;100.00
48553;BME280;34335;51.566;6.994;2024-03-17T08:10:49;101598.97;;;6.85;100.00
48553;BME280;34335;51.566;6.994;2024-03-17T08:13:15;101599.44;;;6.72;100.00
48553;BME280;34335;51.566;6.994;2024-03-17T08:15:42;101596.31;;;6.84;100.00
48553;BME280;34335;51.566;6.994;2024-03-17T08:18:08;101592.72;;;7.09;100.00
48553;BME280;34335;51.566;6.994;2024-03-17T08:20:37;101592.66;;;7.06;100.00
48553;BME280;34335;51.566;6.994;2024-03-17T08:23:04;101584.28;;;6.84;100.00
48553;BME280;34335;51.566;6.994;2024-03-17T08:25:29;101593.94;;;7.22;100.00
48553;BME280;34335;51.566;6.994;2024-03-17T08:27:54;101600.72;;;7.51;100.00
48553;BME280;34335;51.566;6.994;2024-03-17T08:30:20;101593.66;;;7.43;100.00
48553;BME280;34335;51.566;6.994;2024-03-17T08:32:45;101598.47;;;7.63;100.00
48553;BME280;34335;51.566;6.994;2024-03-17T08:35:10;101595.38;;;7.78;100.00
48553;BME280;34335;51.566;6.994;2024-03-17T08:37:36;101593.84;;;7.86;100.00
48553;BME280;34335;51.566;6.994;2024-03-17T08:40:01;101599.28;;;7.62;100.00
48553;BME280;34335;51.566;6.994;2024-03-17T08:42:27;101594.41;;;7.74;100.00
48553;BME280;34335;51.566;6.994;2024-03-17T08:44:52;101584.97;;;7.76;100.00
48553;BME280;34335;51.566;6.994;2024-03-17T08:47:18;101593.47;;;8.06;100.00
48553;BME280;34335;51.566;6.994;2024-03-17T08:49:43;101586.84;;;7.82;100.00
48553;BME280;34335;51.566;6.994;2024-03-17T08:52:31;101587.75;;;8.21;100.00
48553;BME280;34335;51.566;6.994;2024-03-17T08:58:21;101576.22;;;8.46;100.00
48553;BME280;34335;51.566;6.994;2024-03-17T09:00:47;101585.22;;;8.62;100.00
48553;BME280;34335;51.566;6.994;2024-03-17T09:03:12;101581.59;;;8.95;100.00
48553;BME280;34335;51.566;6.994;2024-03-17T09:05:42;101580.75;;;8.55;100.00
48553;BME280;34335;51.566;6.994;2024-03-17T09:08:15;101570.03;;;8.79;100.00
48553;BME280;34335;51.566;6.994;2024-03-17T09:10:41;101574.56;;;9.35;100.00
48553;BME280;34335;51.566;6.994;2024-03-17T09:13:08;101572.56;;;9.22;100.00
48553;BME280;34335;51.566;6.994;2024-03-17T09:15:37;101570.22;;;9.36;100.00
48553;BME280;34335;51.566;6.994;2024-03-17T09:18:02;101572.75;;;9.33;100.00
48553;BME280;34335;51.566;6.994;2024-03-17T09:20:28;101567.13;;;9.57;100.00
48553;BME280;34335;51.566;6.994;2024-03-17T09:22:53;101562.66;;;9.48;100.00
48553;BME280;34335;51.566;6.994;2024-03-17T09:25:18;101558.94;;;9.34;100.00
48553;BME280;34335;51.566;6.994;2024-03-17T09:27:43;101569.28;;;9.31;100.00
48553;BME280;34335;51.566;6.994;2024-03-17T09:30:09;101564.53;;;9.10;100.00
48553;BME280;34335;51.566;6.994;2024-03-17T09:32:35;101561.44;;;9.29;100.00
48553;BME280;34335;51.566;6.994;2024-03-17T09:35:01;101559.69;;;9.28;100.00
48553;BME280;34335;51.566;6.994;2024-03-17T09:37:26;101553.97;;;9.46;100.00
48553;BME280;34335;51.566;6.994;2024-03-17T09:39:51;101550.75;;;9.61;100.00
48553;BME280;34335;51.566;6.994;2024-03-17T09:42:18;101547.09;;;10.04;100.00
48553;BME280;34335;51.566;6.994;2024-03-17T09:44:48;101543.66;;;10.08;100.00
48553;BME280;34335;51.566;6.994;2024-03-17T09:47:20;101551.34;;;10.60;100.00
48553;BME280;34335;51.566;6.994;2024-03-17T09:49:47;101545.50;;;10.80;100.00
48553;BME280;34335;51.566;6.994;2024-03-17T09:52:19;101541.03;;;10.69;100.00
48553;BME280;34335;51.566;6.994;2024-03-17T09:54:44;101539.50;;;10.85;100.00
48553;BME280;34335;51.566;6.994;2024-03-17T09:57:15;101546.28;;;10.74;100.00
48553;BME280;34335;51.566;6.994;2024-03-17T09:59:41;101553.81;;;10.49;100.00
48553;BME280;34335;51.566;6.994;2024-03-17T10:02:15;101555.91;;;10.78;100.00
48553;BME280;34335;51.566;6.994;2024-03-17T10:04:41;101557.00;;;11.02;100.00
48553;BME280;34335;51.566;6.994;2024-03-17T10:07:06;101555.22;;;10.95;100.00
48553;BME280;34335;51.566;6.994;2024-03-17T10:09:31;101561.47;;;11.12;100.00
48553;BME280;34335;51.566;6.994;2024-03-17T10:11:57;101565.81;;;11.10;100.00
48553;BME280;34335;51.566;6.994;2024-03-17T10:14:23;101571.06;;;11.15;100.00
48553;BME280;34335;51.566;6.994;2024-03-17T10:16:48;101561.56;;;11.21;100.00
48553;BME280;34335;51.566;6.994;2024-03-17T10:19:15;101560.78;;;11.29;100.00
48553;BME280;34335;51.566;6.994;2024-03-17T10:21:43;101566.00;;;11.30;100.00
48553;BME280;34335;51.566;6.994;2024-03-17T10:24:10;101565.38;;;11.58;100.00
48553;BME280;34335;51.566;6.994;2024-03-17T10:26:57;101555.66;;;11.38;100.00
48553;BME280;34335;51.566;6.994;2024-03-17T10:29:24;101563.00;;;11.85;100.00
48553;BME280;34335;51.566;6.994;2024-03-17T10:31:55;101562.94;;;11.79;100.00
48553;BME280;34335;51.566;6.994;2024-03-17T10:34:21;101566.47;;;11.86;100.00
48553;BME280;34335;51.566;6.994;2024-03-17T10:36:50;101566.66;;;12.06;100.00
48553;BME280;34335;51.566;6.994;2024-03-17T10:39:34;101558.03;;;12.17;100.00
48553;BME280;34335;51.566;6.994;2024-03-17T10:42:01;101550.25;;;12.23;100.00
48553;BME280;34335;51.566;6.994;2024-03-17T10:44:28;101554.63;;;12.28;100.00
48553;BME280;34335;51.566;6.994;2024-03-17T10:46:57;101552.78;;;12.13;100.00
48553;BME280;34335;51.566;6.994;2024-03-17T10:49:31;101557.28;;;12.39;100.00
48553;BME280;34335;51.566;6.994;2024-03-17T10:52:16;101554.63;;;12.30;100.00
48553;BME280;34335;51.566;6.994;2024-03-17T10:54:49;101550.38;;;12.49;100.00
48553;BME280;34335;51.566;6.994;2024-03-17T11:00:02;101545.25;;;12.74;100.00
48553;BME280;34335;51.566;6.994;2024-03-17T11:02:31;101550.47;;;12.75;100.00
48553;BME280;34335;51.566;6.994;2024-03-17T11:07:47;101550.59;;;13.13;100.00
48553;BME280;34335;51.566;6.994;2024-03-17T11:10:20;101542.78;;;13.27;100.00
48553;BME280;34335;51.566;6.994;2024-03-17T11:12:47;101548.78;;;12.94;100.00
48553;BME280;34335;51.566;6.994;2024-03-17T11:17:49;101547.97;;;13.25;100.00
48553;BME280;34335;51.566;6.994;2024-03-17T11:20:24;101548.78;;;12.91;100.00
48553;BME280;34335;51.566;6.994;2024-03-17T11:22:54;101549.72;;;13.17;100.00
48553;BME280;34335;51.566;6.994;2024-03-17T11:27:59;101545.34;;;13.00;100.00
48553;BME280;34335;51.566;6.994;2024-03-17T11:39:09;101536.72;;;13.42;100.00
48553;BME280;34335;51.566;6.994;2024-03-17T11:41:54;101537.56;;;13.53;100.00
48553;BME280;34335;51.566;6.994;2024-03-17T11:46:46;101534.06;;;13.82;100.00
48553;BME280;34335;51.566;6.994;2024-03-17T11:49:41;101527.13;;;13.78;100.00
48553;BME280;34335;51.566;6.994;2024-03-17T11:52:10;101527.09;;;13.90;100.00
48553;BME280;34335;51.566;6.994;2024-03-17T11:54:40;101526.25;;;13.66;100.00
48553;BME280;34335;51.566;6.994;2024-03-17T11:57:13;101521.88;;;13.96;100.00
48553;BME280;34335;51.566;6.994;2024-03-17T11:59:39;101531.47;;;13.83;100.00
48553;BME280;34335;51.566;6.994;2024-03-17T12:02:30;101525.34;;;13.98;100.00
48553;BME280;34335;51.566;6.994;2024-03-17T12:05:01;101523.50;;;14.31;100.00
48553;BME280;34335;51.566;6.994;2024-03-17T12:07:26;101526.09;;;14.36;100.00
48553;BME280;34335;51.566;6.994;2024-03-17T12:09:54;101516.63;;;14.09;98.44
48553;BME280;34335;51.566;6.994;2024-03-17T12:12:27;101512.06;;;14.59;100.00
48553;BME280;34335;51.566;6.994;2024-03-17T12:15:00;101513.00;;;14.41;100.00
48553;BME280;34335;51.566;6.994;2024-03-17T12:17:27;101516.44;;;14.52;100.00
48553;BME280;34335;51.566;6.994;2024-03-17T12:19:52;101514.59;;;14.79;100.00
48553;BME280;34335;51.566;6.994;2024-03-17T12:22:20;101505.91;;;14.71;100.00
48553;BME280;34335;51.566;6.994;2024-03-17T12:24:52;101499.66;;;14.95;100.00
48553;BME280;34335;51.566;6.994;2024-03-17T12:27:25;101496.47;;;14.32;100.00
48553;BME280;34335;51.566;6.994;2024-03-17T12:29:54;101491.09;;;14.68;100.00
48553;BME280;34335;51.566;6.994;2024-03-17T12:32:22;101492.00;;;14.56;100.00
48553;BME280;34335;51.566;6.994;2024-03-17T12:34:56;101487.53;;;14.83;100.00
48553;BME280;34335;51.566;6.994;2024-03-17T12:37:26;101485.78;;;14.79;100.00
48553;BME280;34335;51.566;6.994;2024-03-17T12:39:57;101476.06;;;15.00;100.00
48553;BME280;34335;51.566;6.994;2024-03-17T12:42:26;101473.25;;;15.26;100.00
48553;BME280;34335;51.566;6.994;2024-03-17T12:44:59;101468.09;;;15.17;100.00
48553;BME280;34335;51.566;6.994;2024-03-17T12:47:31;101473.47;;;14.95;100.00
48553;BME280;34335;51.566;6.994;2024-03-17T12:49:58;101466.25;;;15.28;100.00
48553;BME280;34335;51.566;6.994;2024-03-17T12:52:28;101454.72;;;15.48;100.00
48553;BME280;34335;51.566;6.994;2024-03-17T12:57:44;101457.81;;;14.89;100.00
48553;BME280;34335;51.566;6.994;2024-03-17T13:00:29;101439.91;;;15.43;100.00
48553;BME280;34335;51.566;6.994;2024-03-17T13:02:57;101443.78;;;15.93;100.00
48553;BME280;34335;51.566;6.994;2024-03-17T13:05:23;101444.97;;;15.59;91.58
48553;BME280;34335;51.566;6.994;2024-03-17T13:07:49;101444.06;;;15.65;94.44
48553;BME280;34335;51.566;6.994;2024-03-17T13:10:17;101437.72;;;15.87;99.87
48553;BME280;34335;51.566;6.994;2024-03-17T13:12:43;101426.03;;;16.13;100.00
48553;BME280;34335;51.566;6.994;2024-03-17T13:15:11;101425.13;;;16.16;100.00
48553;BME280;34335;51.566;6.994;2024-03-17T13:17:37;101425.88;;;16.29;100.00